Time;durP1;ratioP1;P1;durP2;ratioP2;P2;SDS_P1;SDS_P2;PMS_P1;PMS_P2;Temp;Humidity;BMP_temperature;BMP_pressure;BME280_temperature;BME280_humidity;BME280_pressure;Samples;Min_cycle;Max_cycle;Signal;HPM_P1;HPM_P2
2024/02/22 00:00:46;;;;;;;9.00;4.40;;;10.40;99.90;;;;;;5025701;28;20100;-87
2024/02/22 00:03:11;;;;;;;10.27;4.45;;;10.40;99.90;;;;;;5030867;28;20116;-87
2024/02/22 00:05:37;;;;;;;8.88;4.50;;;10.40;99.90;;;;;;5028924;28;20361;-88
2024/02/22 00:08:03;;;;;;;6.47;3.90;;;10.40;99.90;;;;;;5028209;28;20885;-88
2024/02/22 00:10:29;;;;;;;9.88;4.18;;;10.40;99.90;;;;;;5026683;28;20037;-87
2024/02/22 00:12:55;;;;;;;6.13;4.22;;;10.40;99.90;;;;;;5032841;28;20026;-88
2024/02/22 00:15:21;;;;;;;8.23;3.85;;;10.40;99.90;;;;;;5031819;28;20021;-87
2024/02/22 00:17:46;;;;;;;7.25;4.07;;;10.40;99.90;;;;;;5030475;28;20036;-88
2024/02/22 00:20:14;;;;;;;7.68;3.92;;;10.40;99.90;;;;;;5037362;28;20021;-88
2024/02/22 00:22:39;;;;;;;8.68;4.28;;;10.40;99.90;;;;;;5025387;28;20100;-87
2024/02/22 00:25:06;;;;;;;8.45;3.80;;;10.40;99.90;;;;;;5029875;28;20052;-88
2024/02/22 00:27:33;;;;;;;8.07;4.13;;;10.40;99.90;;;;;;5027721;28;20030;-88
2024/02/22 00:29:59;;;;;;;5.93;3.85;;;10.40;99.90;;;;;;5032078;28;20369;-88
2024/02/22 00:32:24;;;;;;;6.50;3.90;;;10.40;99.90;;;;;;5023547;28;20036;-88
2024/02/22 00:34:50;;;;;;;7.15;3.92;;;10.40;99.90;;;;;;5028369;28;20278;-87
2024/02/22 00:37:15;;;;;;;7.60;3.83;;;10.40;99.90;;;;;;5028116;28;20368;-87
2024/02/22 00:39:44;;;;;;;8.32;3.85;;;10.40;99.90;;;;;;5032039;28;20089;-87
2024/02/22 00:42:10;;;;;;;5.80;3.50;;;10.40;99.90;;;;;;5033741;28;20017;-88
2024/02/22 00:44:35;;;;;;;7.10;4.10;;;10.40;99.90;;;;;;5033954;28;20112;-88
2024/02/22 00:47:01;;;;;;;6.85;3.53;;;10.40;99.90;;;;;;5025804;28;20054;-88
2024/02/22 00:49:28;;;;;;;6.95;3.83;;;10.40;99.90;;;;;;5039141;28;20031;-88
2024/02/22 00:51:54;;;;;;;8.75;3.60;;;10.40;99.90;;;;;;5027682;28;20022;-88
2024/02/22 00:54:19;;;;;;;8.73;3.97;;;10.40;99.90;;;;;;5034231;28;20360;-87
2024/02/22 00:56:45;;;;;;;6.47;3.22;;;10.40;99.90;;;;;;5038459;28;20022;-87
2024/02/22 00:59:10;;;;;;;8.85;3.20;;;10.40;99.90;;;;;;5029621;28;20415;-87
2024/02/22 01:01:36;;;;;;;4.57;3.05;;;10.40;99.90;;;;;;5041141;28;20103;-87
2024/02/22 01:04:02;;;;;;;4.78;3.47;;;10.40;99.90;;;;;;5024636;28;20025;-88
2024/02/22 01:06:27;;;;;;;8.40;3.80;;;10.40;99.90;;;;;;5028713;28;20037;-88
2024/02/22 01:08:53;;;;;;;11.90;3.97;;;10.40;99.90;;;;;;5037930;28;20029;-88
2024/02/22 01:11:18;;;;;;;6.22;3.63;;;10.40;99.90;;;;;;5035518;28;20071;-88
2024/02/22 01:13:48;;;;;;;9.70;3.83;;;10.40;99.90;;;;;;5026623;28;20030;-88
2024/02/22 01:16:17;;;;;;;8.25;3.83;;;10.40;99.90;;;;;;5031922;28;20115;-88
2024/02/22 01:18:43;;;;;;;6.60;3.33;;;10.40;99.90;;;;;;5027768;28;20029;-88
2024/02/22 01:21:09;;;;;;;5.70;3.10;;;10.40;99.90;;;;;;5033509;28;20029;-87
2024/02/22 01:23:35;;;;;;;7.65;3.40;;;10.40;99.90;;;;;;5028622;28;20684;-88
2024/02/22 01:26:01;;;;;;;6.10;3.58;;;10.40;99.90;;;;;;5037066;28;20100;-88
2024/02/22 01:28:26;;;;;;;5.97;3.40;;;10.40;99.90;;;;;;5027952;28;20120;-88
2024/02/22 01:30:52;;;;;;;6.40;3.38;;;10.40;99.90;;;;;;5031627;28;20037;-87
2024/02/22 01:33:18;;;;;;;8.10;3.90;;;10.40;99.90;;;;;;5027858;28;20042;-88
2024/02/22 01:35:44;;;;;;;5.30;3.50;;;10.40;99.90;;;;;;5032547;28;20053;-88
2024/02/22 01:38:09;;;;;;;6.72;3.80;;;10.40;99.90;;;;;;5039848;28;20026;-87
2024/02/22 01:40:35;;;;;;;8.13;3.15;;;10.40;99.90;;;;;;5027369;28;20389;-88
2024/02/22 01:43:00;;;;;;;5.82;3.42;;;10.40;99.90;;;;;;5034379;28;20557;-87
2024/02/22 01:45:26;;;;;;;5.35;3.20;;;10.40;99.90;;;;;;5031496;28;20075;-87
2024/02/22 01:47:53;;;;;;;4.28;3.00;;;10.40;99.90;;;;;;5026857;28;20555;-88
2024/02/22 01:50:19;;;;;;;7.43;3.10;;;10.40;99.90;;;;;;5030234;28;20031;-87
2024/02/22 01:52:45;;;;;;;7.35;2.78;;;10.40;99.90;;;;;;5031579;28;20148;-87
2024/02/22 01:55:12;;;;;;;7.43;4.00;;;10.40;99.90;;;;;;5039185;28;20028;-88
2024/02/22 01:57:38;;;;;;;5.43;3.65;;;10.40;99.90;;;;;;5034897;28;20074;-86
2024/02/22 02:00:11;;;;;;;8.05;3.03;;;10.30;99.90;;;;;;5027833;28;20048;-88
2024/02/22 02:02:37;;;;;;;9.32;3.55;;;10.40;99.90;;;;;;5020031;28;20033;-87
2024/02/22 02:05:04;;;;;;;6.05;2.97;;;10.40;99.90;;;;;;5026524;28;20108;-87
2024/02/22 02:07:29;;;;;;;6.03;3.10;;;10.40;99.90;;;;;;5035116;28;20028;-87
2024/02/22 02:09:55;;;;;;;4.60;3.15;;;10.30;99.90;;;;;;5037063;28;20048;-88
2024/02/22 02:12:27;;;;;;;5.88;2.97;;;10.40;99.90;;;;;;5040266;28;20084;-88
2024/02/22 02:14:55;;;;;;;6.43;2.83;;;10.40;99.90;;;;;;5040278;28;20021;-87
2024/02/22 02:17:20;;;;;;;3.72;2.75;;;10.40;99.90;;;;;;5030323;28;20017;-88
2024/02/22 02:19:47;;;;;;;5.45;2.67;;;10.30;99.90;;;;;;5028417;28;20080;-89
2024/02/22 02:22:37;;;;;;;5.45;2.90;;;10.40;99.90;;;;;;5032334;28;20022;-88
2024/02/22 02:25:03;;;;;;;7.40;2.78;;;10.40;99.90;;;;;;5029378;28;20026;-88
2024/02/22 02:27:30;;;;;;;5.90;2.83;;;10.40;99.90;;;;;;5033123;28;20065;-87
2024/02/22 02:29:55;;;;;;;5.88;3.13;;;10.40;99.90;;;;;;5027142;28;20108;-87
2024/02/22 02:32:21;;;;;;;5.10;2.85;;;10.40;99.90;;;;;;5028330;28;20515;-87
2024/02/22 02:34:46;;;;;;;4.03;2.80;;;10.40;99.90;;;;;;5031921;28;20083;-87
2024/02/22 02:37:12;;;;;;;7.25;2.92;;;10.40;99.90;;;;;;5033640;28;20049;-87
2024/02/22 02:39:38;;;;;;;5.80;2.80;;;10.30;99.90;;;;;;5027156;28;20021;-88
2024/02/22 02:42:05;;;;;;;5.05;2.78;;;10.40;99.90;;;;;;5032752;28;20056;-86
2024/02/22 02:44:31;;;;;;;4.50;3.08;;;10.30;99.90;;;;;;5033265;28;20022;-88
2024/02/22 02:46:56;;;;;;;4.68;2.70;;;10.30;99.90;;;;;;5025791;28;20112;-87
2024/02/22 02:49:22;;;;;;;7.80;2.75;;;10.30;99.90;;;;;;5042472;28;20782;-89
2024/02/22 02:51:48;;;;;;;3.83;2.40;;;10.30;99.90;;;;;;5029459;28;20540;-88
2024/02/22 02:54:14;;;;;;;4.03;2.53;;;10.40;99.90;;;;;;5034540;28;20021;-87
2024/02/22 02:56:39;;;;;;;3.25;2.63;;;10.30;99.90;;;;;;5025413;28;20040;-87
2024/02/22 02:59:05;;;;;;;7.55;2.85;;;10.40;99.90;;;;;;5028290;28;20026;-87
2024/02/22 03:01:31;;;;;;;6.07;2.95;;;10.40;99.90;;;;;;5034717;28;20041;-88
2024/02/22 03:03:57;;;;;;;4.88;2.58;;;10.40;99.90;;;;;;5038024;28;20025;-88
2024/02/22 03:06:23;;;;;;;5.47;2.65;;;10.40;99.90;;;;;;5030672;28;20022;-87
2024/02/22 03:08:48;;;;;;;4.07;2.55;;;10.40;99.90;;;;;;5027163;28;20021;-88
2024/02/22 03:11:14;;;;;;;5.70;2.42;;;10.40;99.90;;;;;;5025214;28;20112;-88
2024/02/22 03:13:40;;;;;;;4.30;2.42;;;10.30;99.90;;;;;;5029844;28;20488;-88
2024/02/22 03:16:07;;;;;;;7.55;3.20;;;10.40;99.90;;;;;;5019713;28;20030;-87
2024/02/22 03:18:33;;;;;;;5.10;2.33;;;10.30;99.90;;;;;;5023424;28;20022;-88
2024/02/22 03:21:00;;;;;;;3.92;2.63;;;10.30;99.90;;;;;;5023645;28;20018;-88
2024/02/22 03:23:27;;;;;;;3.70;2.13;;;10.30;99.90;;;;;;5025132;28;20039;-88
2024/02/22 03:25:53;;;;;;;3.30;2.33;;;10.30;99.90;;;;;;5027740;28;20013;-87
2024/02/22 03:28:19;;;;;;;4.38;2.33;;;10.30;99.90;;;;;;5040884;28;20454;-88
2024/02/22 03:30:46;;;;;;;2.97;1.95;;;10.30;99.90;;;;;;5037203;28;20083;-87
2024/02/22 03:33:13;;;;;;;3.75;2.50;;;10.30;99.90;;;;;;5026612;28;20120;-87
2024/02/22 03:35:38;;;;;;;3.30;2.42;;;10.30;99.90;;;;;;5027236;28;20026;-89
2024/02/22 03:38:04;;;;;;;4.53;2.03;;;10.30;99.90;;;;;;5054533;28;20514;-88
2024/02/22 03:40:30;;;;;;;5.20;2.85;;;10.40;99.90;;;;;;5037295;28;20070;-87
2024/02/22 03:42:57;;;;;;;4.65;2.83;;;10.40;99.90;;;;;;5036193;28;20018;-87
2024/02/22 03:45:23;;;;;;;4.10;2.58;;;10.40;99.90;;;;;;5031005;28;20029;-88
2024/02/22 03:47:49;;;;;;;3.88;2.40;;;10.30;99.90;;;;;;5030583;28;20479;-86
2024/02/22 03:50:15;;;;;;;5.13;2.80;;;10.40;99.90;;;;;;5027999;28;20041;-87
2024/02/22 03:52:41;;;;;;;8.18;2.58;;;10.40;99.90;;;;;;5028151;28;20025;-87
2024/02/22 03:55:08;;;;;;;4.32;2.50;;;10.30;99.90;;;;;;5026115;28;20061;-87
2024/02/22 03:57:34;;;;;;;3.65;2.17;;;10.30;99.90;;;;;;5035791;28;20025;-88
2024/02/22 04:00:00;;;;;;;3.90;2.42;;;10.30;99.90;;;;;;5023408;28;20142;-87
2024/02/22 04:02:25;;;;;;;5.38;3.15;;;10.30;99.90;;;;;;5030392;28;20059;-87
2024/02/22 04:04:52;;;;;;;4.28;2.33;;;10.30;99.90;;;;;;5023378;28;20025;-88
2024/02/22 04:07:17;;;;;;;6.22;2.60;;;10.30;99.90;;;;;;5019322;28;20018;-89
2024/02/22 04:09:43;;;;;;;3.05;2.22;;;10.30;99.90;;;;;;5028142;28;20075;-87
2024/02/22 04:12:09;;;;;;;4.00;2.40;;;10.30;99.90;;;;;;5026414;28;20021;-88
2024/02/22 04:14:34;;;;;;;3.05;2.40;;;10.30;99.90;;;;;;5029042;28;20017;-87
2024/02/22 04:17:00;;;;;;;4.03;2.65;;;10.30;99.90;;;;;;5029592;28;20376;-87
2024/02/22 04:19:25;;;;;;;4.72;2.63;;;10.30;99.90;;;;;;5032297;28;20428;-87
2024/02/22 04:21:51;;;;;;;3.65;2.38;;;10.30;99.90;;;;;;5037348;28;20069;-87
2024/02/22 04:24:16;;;;;;;2.58;1.98;;;10.20;99.90;;;;;;5028022;28;20026;-88
2024/02/22 04:26:50;;;;;;;6.45;2.58;;;10.20;99.90;;;;;;5039364;28;20021;-88
2024/02/22 04:29:16;;;;;;;3.97;2.20;;;10.20;99.90;;;;;;5028203;28;20021;-87
2024/02/22 04:31:45;;;;;;;3.42;2.20;;;10.20;99.90;;;;;;5034079;28;20055;-87
2024/02/22 04:34:11;;;;;;;3.20;1.73;;;10.20;99.90;;;;;;5033599;28;20069;-87
2024/02/22 04:36:41;;;;;;;3.38;2.05;;;10.20;99.90;;;;;;5028465;28;20052;-87
2024/02/22 04:39:07;;;;;;;6.88;2.35;;;10.20;99.90;;;;;;5030640;28;20061;-87
2024/02/22 04:41:33;;;;;;;3.95;2.20;;;10.20;99.90;;;;;;5026673;28;20022;-88
2024/02/22 04:43:59;;;;;;;3.95;1.83;;;10.20;99.90;;;;;;5028499;28;20022;-88
2024/02/22 04:46:25;;;;;;;3.75;2.10;;;10.20;99.90;;;;;;5025289;28;20563;-87
2024/02/22 04:48:50;;;;;;;4.75;1.98;;;10.20;99.90;;;;;;5037048;28;20499;-88
2024/02/22 04:51:16;;;;;;;3.85;1.90;;;10.20;99.90;;;;;;5025327;28;20053;-88
2024/02/22 04:53:41;;;;;;;5.85;1.77;;;10.20;99.90;;;;;;5022625;28;20041;-87
2024/02/22 04:56:07;;;;;;;3.53;2.05;;;10.20;99.90;;;;;;5020646;28;20517;-88
2024/02/22 04:58:36;;;;;;;3.58;1.83;;;10.20;99.90;;;;;;5040034;28;20545;-88
2024/02/22 05:01:02;;;;;;;5.38;2.30;;;10.20;99.90;;;;;;5021990;28;20025;-88
2024/02/22 05:03:27;;;;;;;5.07;2.40;;;10.20;99.90;;;;;;5027137;28;20488;-87
2024/02/22 05:05:53;;;;;;;4.75;2.03;;;10.20;99.90;;;;;;5030264;28;20017;-87
2024/02/22 05:08:18;;;;;;;2.40;1.90;;;10.20;99.90;;;;;;5027612;28;20061;-88
2024/02/22 05:10:44;;;;;;;3.33;2.28;;;10.20;99.90;;;;;;5032345;28;20079;-87
2024/02/22 05:13:10;;;;;;;3.72;1.77;;;10.20;99.90;;;;;;5034008;28;20529;-88
2024/02/22 05:15:35;;;;;;;3.25;2.00;;;10.20;99.90;;;;;;5028690;28;20041;-87
2024/02/22 05:18:01;;;;;;;1.77;1.27;;;10.20;99.90;;;;;;5035277;28;20057;-88
2024/02/22 05:20:26;;;;;;;2.58;1.55;;;10.20;99.90;;;;;;5028423;28;20024;-87
2024/02/22 05:22:52;;;;;;;2.53;1.75;;;10.20;99.90;;;;;;5024505;28;20472;-88
2024/02/22 05:25:18;;;;;;;3.88;1.95;;;10.20;99.90;;;;;;5026749;28;21576;-87
2024/02/22 05:27:43;;;;;;;2.78;1.73;;;10.20;99.90;;;;;;5029783;28;20017;-87
2024/02/22 05:30:09;;;;;;;6.68;1.90;;;10.20;99.90;;;;;;5038388;28;20029;-87
2024/02/22 05:32:34;;;;;;;2.85;1.85;;;10.20;99.90;;;;;;5034682;28;20029;-86
2024/02/22 05:35:00;;;;;;;1.98;1.48;;;10.20;99.90;;;;;;5040646;28;20036;-88
2024/02/22 05:37:26;;;;;;;3.53;1.75;;;10.20;99.90;;;;;;5032476;28;20056;-88
2024/02/22 05:39:51;;;;;;;2.17;1.67;;;10.20;99.90;;;;;;5034337;28;20057;-87
2024/02/22 05:42:17;;;;;;;2.35;1.75;;;10.20;99.90;;;;;;5029268;28;20030;-88
2024/02/22 05:44:42;;;;;;;3.05;1.58;;;10.20;99.90;;;;;;5032301;28;20109;-88
2024/02/22 05:47:08;;;;;;;5.03;2.13;;;10.20;99.90;;;;;;5030924;28;20032;-88
2024/02/22 05:49:34;;;;;;;3.75;1.70;;;10.20;99.90;;;;;;5032517;28;20032;-88
2024/02/22 05:51:59;;;;;;;2.17;1.65;;;10.20;99.90;;;;;;5025447;28;20480;-88
2024/02/22 05:54:25;;;;;;;4.20;2.08;;;10.20;99.90;;;;;;5029745;28;20550;-88
2024/02/22 05:56:50;;;;;;;2.03;1.77;;;10.20;99.90;;;;;;5037295;28;20025;-87
2024/02/22 05:59:16;;;;;;;3.92;2.28;;;10.20;99.90;;;;;;5036101;28;20095;-86
2024/02/22 06:01:42;;;;;;;4.70;1.80;;;10.10;99.90;;;;;;5030557;28;20045;-87
2024/02/22 06:04:07;;;;;;;3.30;1.65;;;10.20;99.90;;;;;;5041444;28;20034;-86
2024/02/22 06:06:33;;;;;;;4.05;1.75;;;10.20;99.90;;;;;;5036094;28;20022;-88
2024/02/22 06:08:58;;;;;;;6.18;2.00;;;10.20;99.90;;;;;;5027079;28;20444;-88
2024/02/22 06:11:24;;;;;;;3.35;2.20;;;10.10;99.90;;;;;;5033497;28;20025;-88
2024/02/22 06:13:49;;;;;;;2.28;1.60;;;10.10;99.90;;;;;;5029510;28;20535;-88
2024/02/22 06:16:15;;;;;;;1.92;1.60;;;10.10;99.90;;;;;;5026201;28;20108;-88
2024/02/22 06:18:41;;;;;;;2.42;1.52;;;10.20;99.90;;;;;;5043774;28;20108;-87
2024/02/22 06:21:07;;;;;;;2.97;1.75;;;10.10;99.90;;;;;;5030188;28;20028;-88
2024/02/22 06:23:34;;;;;;;1.65;1.55;;;10.10;99.90;;;;;;5034930;28;20029;-88
2024/02/22 06:25:59;;;;;;;2.58;1.98;;;10.10;99.90;;;;;;5032661;28;20018;-87
2024/02/22 06:28:25;;;;;;;3.67;1.52;;;10.10;99.90;;;;;;5028304;28;20078;-88
2024/02/22 06:30:51;;;;;;;6.15;1.77;;;10.10;99.90;;;;;;5038876;28;20483;-87
2024/02/22 06:33:16;;;;;;;6.22;1.30;;;10.10;99.90;;;;;;5035865;28;20559;-87
2024/02/22 06:35:42;;;;;;;2.65;1.55;;;10.10;99.90;;;;;;5021538;28;20038;-88
2024/02/22 06:38:07;;;;;;;2.58;1.38;;;10.10;99.90;;;;;;5025960;28;20025;-87
2024/02/22 06:40:33;;;;;;;1.55;1.30;;;10.10;99.90;;;;;;5027457;28;20033;-88
2024/02/22 06:42:58;;;;;;;3.95;1.40;;;10.10;99.90;;;;;;5033562;28;20495;-87
2024/02/22 06:45:24;;;;;;;1.42;1.20;;;10.10;99.90;;;;;;5031396;28;20022;-86
2024/02/22 06:47:51;;;;;;;4.28;1.42;;;10.10;99.90;;;;;;5031645;28;20037;-88
2024/02/22 06:50:17;;;;;;;2.88;1.65;;;10.10;99.90;;;;;;5027794;28;20057;-87
2024/02/22 06:52:43;;;;;;;2.17;1.08;;;10.10;99.90;;;;;;5033878;28;20057;-88
2024/02/22 06:55:10;;;;;;;2.90;1.30;;;10.10;99.90;;;;;;5038756;28;20025;-86
2024/02/22 06:57:38;;;;;;;5.65;1.88;;;10.10;99.90;;;;;;5030727;28;20026;-88
2024/02/22 07:00:04;;;;;;;3.85;1.50;;;10.10;99.90;;;;;;5030663;28;20017;-88
2024/02/22 07:02:30;;;;;;;2.33;1.50;;;10.10;99.90;;;;;;5036836;28;20037;-87
2024/02/22 07:04:56;;;;;;;1.90;1.45;;;10.10;99.90;;;;;;5035920;28;20026;-87
2024/02/22 07:07:21;;;;;;;2.05;1.65;;;10.10;99.90;;;;;;5022936;28;20037;-86
2024/02/22 07:09:47;;;;;;;2.05;1.50;;;10.10;99.90;;;;;;5015210;28;20607;-87
2024/02/22 07:12:13;;;;;;;2.55;1.52;;;10.10;99.90;;;;;;5026044;28;20120;-88
2024/02/22 07:14:38;;;;;;;1.38;1.25;;;10.10;99.90;;;;;;5032418;28;20022;-88
2024/02/22 07:17:04;;;;;;;2.90;1.33;;;10.10;99.90;;;;;;5043088;28;20476;-87
2024/02/22 07:19:29;;;;;;;1.67;1.52;;;10.10;99.90;;;;;;5032787;28;20026;-88
2024/02/22 07:21:55;;;;;;;2.17;1.38;;;10.10;99.90;;;;;;5036136;28;20116;-88
2024/02/22 07:24:20;;;;;;;3.67;1.65;;;10.10;99.90;;;;;;5027215;28;20079;-88
2024/02/22 07:26:46;;;;;;;3.47;1.35;;;10.10;99.90;;;;;;5035788;28;20021;-88
2024/02/22 07:29:12;;;;;;;5.72;1.65;;;10.10;99.90;;;;;;5034401;28;20504;-88
2024/02/22 07:31:37;;;;;;;2.30;1.50;;;10.20;99.90;;;;;;5026783;28;20041;-87
2024/02/22 07:34:03;;;;;;;1.88;1.60;;;10.10;99.90;;;;;;5043283;28;20048;-89
2024/02/22 07:36:28;;;;;;;2.97;1.58;;;10.10;99.90;;;;;;5017854;28;20108;-87
2024/02/22 07:38:54;;;;;;;1.50;1.30;;;10.10;99.90;;;;;;5026844;28;20057;-88
2024/02/22 07:41:22;;;;;;;3.17;1.55;;;10.10;99.90;;;;;;5033221;28;20489;-88
2024/02/22 07:43:49;;;;;;;2.00;1.30;;;10.10;99.90;;;;;;5028855;28;20026;-87
2024/02/22 07:46:16;;;;;;;2.10;1.60;;;10.10;99.90;;;;;;5029520;28;20724;-88
2024/02/22 07:48:42;;;;;;;2.25;1.30;;;10.10;99.90;;;;;;5025583;28;20025;-88
2024/02/22 07:51:09;;;;;;;2.65;1.27;;;10.10;99.90;;;;;;5015668;28;20105;-88
2024/02/22 07:53:36;;;;;;;1.73;1.52;;;10.10;99.90;;;;;;5032879;28;20116;-89
2024/02/22 07:56:06;;;;;;;1.73;1.23;;;10.10;99.90;;;;;;5026203;28;20025;-87
2024/02/22 07:58:33;;;;;;;;;;;10.10;99.90;;;;;;5033497;28;20017;-87
2024/02/22 08:00:59;;;;;;;2.10;1.30;;;10.10;99.90;;;;;;5034122;28;19958;-87
2024/02/22 08:03:25;;;;;;;1.35;1.10;;;10.10;99.90;;;;;;5024381;28;20022;-88
2024/02/22 08:05:52;;;;;;;2.08;1.40;;;10.10;99.90;;;;;;5030740;28;20025;-88
2024/02/22 08:08:19;;;;;;;2.63;1.42;;;10.10;99.90;;;;;;5019774;28;20105;-87
2024/02/22 08:10:45;;;;;;;2.42;1.50;;;10.10;99.90;;;;;;5026010;28;20026;-88
2024/02/22 08:13:10;;;;;;;1.33;1.23;;;10.10;99.90;;;;;;5030592;28;20034;-88
2024/02/22 08:15:36;;;;;;;1.50;1.20;;;10.10;99.90;;;;;;5030362;28;20032;-87
2024/02/22 08:18:02;;;;;;;2.97;1.50;;;10.10;99.90;;;;;;5038101;28;20036;-87
2024/02/22 08:20:28;;;;;;;2.50;1.15;;;10.20;99.90;;;;;;5034033;28;20025;-88
2024/02/22 08:22:53;;;;;;;1.23;1.05;;;10.20;99.90;;;;;;5039967;28;20484;-88
2024/02/22 08:25:19;;;;;;;2.30;1.70;;;10.10;99.90;;;;;;5032440;28;20075;-88
2024/02/22 08:27:45;;;;;;;2.22;1.20;;;10.10;99.90;;;;;;5030366;28;20037;-87
2024/02/22 08:30:11;;;;;;;3.42;1.33;;;10.20;99.90;;;;;;5024176;28;20098;-86
2024/02/22 08:32:37;;;;;;;2.83;1.65;;;10.10;99.90;;;;;;5032207;28;20112;-86
2024/02/22 08:35:03;;;;;;;1.80;1.52;;;10.10;99.90;;;;;;5031411;28;20619;-87
2024/02/22 08:37:28;;;;;;;2.63;1.70;;;10.10;99.90;;;;;;5029658;28;20029;-88
2024/02/22 08:39:54;;;;;;;2.67;1.60;;;10.10;99.90;;;;;;5031045;28;20105;-88
2024/02/22 08:42:20;;;;;;;2.15;1.23;;;10.10;99.90;;;;;;5031848;28;20021;-88
2024/02/22 08:44:46;;;;;;;2.42;1.58;;;10.10;99.90;;;;;;5035882;28;20041;-88
2024/02/22 08:47:11;;;;;;;1.50;1.40;;;10.10;99.90;;;;;;5025500;28;20017;-87
2024/02/22 08:49:38;;;;;;;2.20;1.65;;;10.10;99.90;;;;;;5027408;28;20037;-88
2024/02/22 08:52:06;;;;;;;3.80;1.33;;;10.10;99.90;;;;;;5029894;28;20049;-87
2024/02/22 08:54:32;;;;;;;2.10;1.50;;;10.10;99.90;;;;;;5018348;28;20030;-87
2024/02/22 08:56:57;;;;;;;2.63;1.90;;;10.10;99.90;;;;;;5023202;28;20029;-89
2024/02/22 08:59:23;;;;;;;2.03;1.55;;;10.10;99.90;;;;;;5026742;28;20515;-88
2024/02/22 09:01:49;;;;;;;1.92;1.50;;;10.10;99.90;;;;;;5030994;28;20018;-87
2024/02/22 09:04:14;;;;;;;4.97;1.80;;;10.10;99.90;;;;;;5023545;28;20033;-88
2024/02/22 09:06:42;;;;;;;2.05;1.52;;;10.10;99.90;;;;;;5021880;28;20021;-88
2024/02/22 09:09:07;;;;;;;2.20;1.50;;;10.10;99.90;;;;;;5033592;28;20112;-87
2024/02/22 09:11:33;;;;;;;2.53;1.35;;;10.10;99.90;;;;;;5021746;28;20118;-88
2024/02/22 09:13:59;;;;;;;3.05;1.73;;;10.10;99.90;;;;;;5031629;28;20029;-88
2024/02/22 09:16:25;;;;;;;2.40;1.52;;;10.10;99.90;;;;;;5028967;28;20038;-87
2024/02/22 09:18:50;;;;;;;3.72;1.52;;;10.10;99.90;;;;;;5038557;28;20515;-87
2024/02/22 09:21:16;;;;;;;1.27;1.10;;;10.10;99.90;;;;;;5033246;28;20022;-88
2024/02/22 09:23:44;;;;;;;1.40;1.17;;;10.10;99.90;;;;;;5042047;28;20025;-88
2024/02/22 09:26:12;;;;;;;1.98;1.40;;;10.10;99.90;;;;;;5034659;28;20025;-88
2024/02/22 09:28:38;;;;;;;1.48;1.38;;;10.20;99.90;;;;;;5041513;28;20053;-88
2024/02/22 09:31:04;;;;;;;1.83;1.52;;;10.10;99.90;;;;;;5022032;28;20061;-87
2024/02/22 09:33:30;;;;;;;2.10;1.30;;;10.20;99.90;;;;;;5040330;28;20052;-88
2024/02/22 09:35:56;;;;;;;1.45;1.15;;;10.20;99.90;;;;;;5031555;28;20032;-87
2024/02/22 09:38:21;;;;;;;1.98;1.40;;;10.20;99.90;;;;;;5030228;28;20022;-87
2024/02/22 09:40:48;;;;;;;1.40;1.30;;;10.10;99.90;;;;;;5033067;28;20113;-87
2024/02/22 09:43:17;;;;;;;4.57;1.45;;;10.20;99.90;;;;;;5030296;28;20014;-87
2024/02/22 09:45:44;;;;;;;1.23;1.10;;;10.10;99.90;;;;;;5036443;28;20686;-86
2024/02/22 09:48:10;;;;;;;2.95;1.60;;;10.10;99.90;;;;;;5043382;28;20031;-87
2024/02/22 09:50:37;;;;;;;1.40;1.27;;;10.10;99.90;;;;;;5033934;28;20029;-88
2024/02/22 09:53:03;;;;;;;1.50;1.30;;;10.10;99.90;;;;;;5026207;28;20053;-88
2024/02/22 09:55:29;;;;;;;1.95;1.48;;;10.10;99.90;;;;;;5031767;28;20025;-88
2024/02/22 09:57:55;;;;;;;1.25;1.08;;;10.10;99.90;;;;;;5040649;28;20025;-88
2024/02/22 10:00:21;;;;;;;2.00;1.42;;;10.10;99.90;;;;;;5033808;28;20033;-87
2024/02/22 10:02:47;;;;;;;3.25;1.23;;;10.20;99.90;;;;;;5035310;28;20022;-88
2024/02/22 10:05:12;;;;;;;1.08;0.93;;;10.20;99.90;;;;;;5028070;28;20017;-87
2024/02/22 10:07:39;;;;;;;1.20;1.00;;;10.10;99.90;;;;;;5032395;28;20025;-87
2024/02/22 10:10:06;;;;;;;1.38;0.98;;;10.10;99.90;;;;;;5029440;28;20078;-87
2024/02/22 10:12:33;;;;;;;2.30;1.02;;;10.10;99.90;;;;;;5052547;28;20052;-88
2024/02/22 10:14:59;;;;;;;1.58;1.15;;;10.10;99.90;;;;;;5026857;28;20060;-87
2024/02/22 10:17:30;;;;;;;1.00;0.90;;;10.20;99.90;;;;;;5020729;28;20026;-88
2024/02/22 10:19:57;;;;;;;3.13;1.10;;;10.20;99.90;;;;;;5026570;28;20466;-88
2024/02/22 10:22:24;;;;;;;1.08;0.98;;;10.20;99.90;;;;;;5026901;28;20030;-88
2024/02/22 10:24:52;;;;;;;1.08;1.00;;;10.20;99.90;;;;;;5029582;28;20014;-87
2024/02/22 10:27:21;;;;;;;1.25;0.95;;;10.20;99.90;;;;;;5027839;28;20026;-88
2024/02/22 10:29:49;;;;;;;1.13;0.90;;;10.20;99.90;;;;;;5023935;28;20026;-88
2024/02/22 10:32:18;;;;;;;0.98;0.90;;;10.20;99.90;;;;;;5028324;28;20324;-87
2024/02/22 10:34:53;;;;;;;1.30;1.20;;;10.20;99.90;;;;;;5044015;28;20114;-87
2024/02/22 10:37:18;;;;;;;1.20;0.73;;;10.20;99.90;;;;;;5034924;28;20060;-87
2024/02/22 10:39:49;;;;;;;1.33;1.00;;;10.20;99.90;;;;;;5025481;28;20111;-88
2024/02/22 10:42:15;;;;;;;;;;;10.20;99.90;;;;;;5027003;28;20013;-87
2024/02/22 10:44:46;;;;;;;2.13;0.90;;;10.20;99.90;;;;;;5026603;28;20054;-87
2024/02/22 10:47:12;;;;;;;0.98;0.80;;;10.20;99.90;;;;;;5027598;28;20475;-88
2024/02/22 10:49:38;;;;;;;1.60;1.05;;;10.20;99.90;;;;;;5032182;28;20028;-88
2024/02/22 10:52:06;;;;;;;1.20;0.90;;;10.30;99.90;;;;;;5034015;28;20439;-88
2024/02/22 10:54:34;;;;;;;0.85;0.80;;;10.20;99.90;;;;;;5028954;28;20026;-87
2024/02/22 10:57:03;;;;;;;1.27;0.80;;;10.30;99.90;;;;;;5026031;28;20061;-88
2024/02/22 10:59:31;;;;;;;0.67;0.67;;;10.30;99.90;;;;;;5023977;28;20029;-88
2024/02/22 11:01:58;;;;;;;1.15;0.73;;;10.20;99.90;;;;;;5035631;28;20024;-87
2024/02/22 11:04:23;;;;;;;0.75;0.75;;;10.30;99.90;;;;;;5048848;28;20033;-88
2024/02/22 11:06:49;;;;;;;0.93;0.60;;;10.30;99.90;;;;;;5033984;28;20678;-88
2024/02/22 11:09:19;;;;;;;0.75;0.75;;;10.20;99.90;;;;;;5037873;28;20028;-87
2024/02/22 11:11:48;;;;;;;0.65;0.65;;;10.30;99.90;;;;;;5033110;28;20100;-88
2024/02/22 11:14:35;;;;;;;0.70;0.70;;;10.30;99.90;;;;;;5031015;28;20033;-87
2024/02/22 11:17:05;;;;;;;0.68;0.68;;;10.30;99.90;;;;;;5039843;28;20061;-87
2024/02/22 11:19:31;;;;;;;;;;;10.30;99.90;;;;;;5031268;28;20030;-88
2024/02/22 11:21:57;;;;;;;1.65;0.60;;;10.30;99.90;;;;;;5042439;28;20319;-87
2024/02/22 11:24:24;;;;;;;0.95;0.73;;;10.30;99.90;;;;;;5025228;28;20030;-88
2024/02/22 11:26:51;;;;;;;0.98;0.90;;;10.30;99.90;;;;;;5038874;28;20033;-87
2024/02/22 11:29:29;;;;;;;0.88;0.88;;;10.30;99.90;;;;;;5035753;28;20047;-87
2024/02/22 11:31:57;;;;;;;0.70;0.70;;;10.30;99.90;;;;;;5025516;28;20026;-88
2024/02/22 11:34:22;;;;;;;0.63;0.63;;;10.30;99.90;;;;;;5033543;28;20041;-88
2024/02/22 11:36:48;;;;;;;0.77;0.75;;;10.40;99.90;;;;;;5033294;28;20594;-88
2024/02/22 11:39:18;;;;;;;0.60;0.50;;;10.40;99.90;;;;;;5037584;28;20499;-88
2024/02/22 11:41:48;;;;;;;0.80;0.80;;;10.30;99.90;;;;;;5021070;28;20018;-88
2024/02/22 11:44:14;;;;;;;;;;;10.30;99.90;;;;;;5025764;28;20384;-88
2024/02/22 11:46:40;;;;;;;1.00;0.90;;;10.30;99.90;;;;;;5023192;28;20105;-88
2024/02/22 11:49:07;;;;;;;0.93;0.70;;;10.30;99.90;;;;;;5028540;28;20501;-86
2024/02/22 11:51:33;;;;;;;2.78;0.80;;;10.30;99.90;;;;;;5022605;28;20025;-88
2024/02/22 11:53:59;;;;;;;0.68;0.65;;;10.30;99.90;;;;;;5026412;28;20568;-87
2024/02/22 11:56:25;;;;;;;0.52;0.52;;;10.30;99.90;;;;;;5034031;28;20022;-87
2024/02/22 11:58:51;;;;;;;0.93;0.60;;;10.30;99.90;;;;;;5029460;28;20025;-88
2024/02/22 12:01:18;;;;;;;0.57;0.57;;;10.30;99.90;;;;;;5032756;28;20545;-87
2024/02/22 12:03:46;;;;;;;4.25;0.85;;;10.30;99.90;;;;;;5021679;28;20021;-87
2024/02/22 12:06:14;;;;;;;1.75;0.52;;;10.30;99.90;;;;;;5047713;28;20025;-88
2024/02/22 12:08:41;;;;;;;3.30;0.63;;;10.30;99.90;;;;;;5028721;28;20075;-87
2024/02/22 12:11:08;;;;;;;0.70;0.60;;;10.30;99.90;;;;;;5025193;28;20091;-88
2024/02/22 12:13:34;;;;;;;0.60;0.60;;;10.30;99.90;;;;;;5026753;28;20116;-87
2024/02/22 12:16:10;;;;;;;1.25;0.80;;;10.30;99.90;;;;;;5035170;28;20557;-87
2024/02/22 12:18:38;;;;;;;0.68;0.65;;;10.30;99.90;;;;;;5025667;28;20029;-88
2024/02/22 12:21:04;;;;;;;1.08;0.98;;;10.30;99.90;;;;;;5028896;28;20511;-88
2024/02/22 12:23:30;;;;;;;0.73;0.73;;;10.20;99.90;;;;;;5031929;28;20033;-87
2024/02/22 12:26:06;;;;;;;0.85;0.70;;;10.20;99.90;;;;;;5022351;28;20105;-88
2024/02/22 12:28:35;;;;;;;0.93;0.90;;;10.20;99.90;;;;;;5030028;28;20117;-88
2024/02/22 12:31:03;;;;;;;0.70;0.70;;;10.20;99.90;;;;;;5033157;28;20511;-86
2024/02/22 12:33:29;;;;;;;1.25;1.17;;;10.20;99.90;;;;;;5032508;28;20060;-87
2024/02/22 12:35:56;;;;;;;1.10;0.93;;;10.20;99.90;;;;;;5030542;28;20056;-88
2024/02/22 12:38:22;;;;;;;1.30;0.90;;;10.20;99.90;;;;;;5042548;28;20025;-87
2024/02/22 12:40:48;;;;;;;0.95;0.75;;;10.20;99.90;;;;;;5035512;28;20365;-87
2024/02/22 12:43:18;;;;;;;1.05;0.80;;;10.20;99.90;;;;;;5024412;28;20088;-87